Time;durP1;ratioP1;P1;durP2;ratioP2;P2;SDS_P1;SDS_P2;PMS_P1;PMS_P2;Temp;Humidity;BMP_temperature;BMP_pressure;BME280_temperature;BME280_humidity;BME280_pressure;Samples;Min_cycle;Max_cycle;Signal;HPM_P1;HPM_P2
2022/06/19 00:01:20;;;;;;;7.50;5.78;;;29.70;1.00;;;;;;5154643;27;20113;-44
2022/06/19 00:03:48;;;;;;;5.75;5.25;;;29.80;1.00;;;;;;5150484;27;20027;-41
2022/06/19 00:06:15;;;;;;;7.60;5.38;;;29.80;1.00;;;;;;5154374;27;20033;-41
2022/06/19 00:08:41;;;;;;;7.63;5.28;;;29.70;1.00;;;;;;5152474;27;20463;-41
2022/06/19 00:11:10;;;;;;;9.40;5.40;;;29.70;1.00;;;;;;5143179;27;20034;-41
2022/06/19 00:13:37;;;;;;;6.43;5.60;;;29.70;1.00;;;;;;5147828;27;20516;-41
2022/06/19 00:16:03;;;;;;;6.20;5.60;;;29.70;1.00;;;;;;5152939;27;20105;-41
2022/06/19 00:18:29;;;;;;;5.97;5.38;;;29.70;1.00;;;;;;5141661;27;20115;-44
2022/06/19 00:20:55;;;;;;;5.75;5.22;;;29.60;1.00;;;;;;5139970;27;20031;-41
2022/06/19 00:23:20;;;;;;;6.40;5.20;;;29.60;1.00;;;;;;5152427;27;20029;-40
2022/06/19 00:25:46;;;;;;;8.30;5.50;;;29.80;1.00;;;;;;5152207;27;20422;-43
2022/06/19 00:28:12;;;;;;;8.63;5.95;;;29.60;1.00;;;;;;5152906;27;20018;-42
2022/06/19 00:30:38;;;;;;;8.77;5.72;;;29.50;1.00;;;;;;5153645;27;20402;-41
2022/06/19 00:33:04;;;;;;;5.78;5.15;;;29.60;1.00;;;;;;5152967;27;21889;-41
2022/06/19 00:35:30;;;;;;;7.03;5.45;;;29.60;1.00;;;;;;5152963;27;20576;-42
2022/06/19 00:37:56;;;;;;;5.95;4.78;;;29.60;1.00;;;;;;5152528;27;20084;-42
2022/06/19 00:40:25;;;;;;;6.15;4.95;;;29.70;1.00;;;;;;5153776;27;20415;-45
2022/06/19 00:42:51;;;;;;;7.88;5.68;;;29.40;1.00;;;;;;5143615;27;20055;-41
2022/06/19 00:45:31;;;;;;;8.05;5.63;;;29.30;1.00;;;;;;5151209;27;20217;-42
2022/06/19 00:48:00;;;;;;;7.38;5.30;;;29.30;1.00;;;;;;5152347;27;20015;-42
2022/06/19 00:50:32;;;;;;;7.85;5.60;;;29.30;1.00;;;;;;5144886;27;20433;-42
2022/06/19 00:52:59;;;;;;;5.28;4.78;;;29.60;1.00;;;;;;5151900;27;20122;-42
2022/06/19 00:55:31;;;;;;;8.20;5.18;;;29.30;1.00;;;;;;5142601;27;20026;-43
2022/06/19 00:58:27;;;;;;;7.20;5.03;;;29.30;1.00;;;;;;5152750;27;20485;-42
2022/06/19 01:01:07;;;;;;;5.47;4.80;;;29.20;1.00;;;;;;5142206;27;20034;-41
2022/06/19 01:04:00;;;;;;;7.47;5.03;;;29.20;1.00;;;;;;5148943;27;20495;-41
2022/06/19 01:06:26;;;;;;;7.15;5.00;;;29.40;1.00;;;;;;5145376;27;20396;-41
2022/06/19 01:08:52;;;;;;;6.45;5.03;;;29.20;1.00;;;;;;5134826;27;20058;-41
2022/06/19 01:11:20;;;;;;;8.00;5.30;;;29.10;1.00;;;;;;5137428;27;20035;-41
2022/06/19 01:13:47;;;;;;;5.28;4.70;;;29.20;1.00;;;;;;5144115;27;20038;-42
2022/06/19 01:16:13;;;;;;;8.77;5.63;;;29.30;1.00;;;;;;5132666;27;20371;-40
2022/06/19 01:18:40;;;;;;;6.07;4.72;;;29.10;1.00;;;;;;5151922;27;20052;-42
2022/06/19 01:21:41;;;;;;;5.75;5.18;;;29.10;1.00;;;;;;5155003;27;20022;-41
2022/06/19 01:24:22;;;;;;;6.32;4.45;;;29.10;1.00;;;;;;5141256;27;20471;-41
2022/06/19 01:26:51;;;;;;;6.70;4.80;;;29.00;1.00;;;;;;5143236;27;20034;-41
2022/06/19 01:29:19;;;;;;;9.55;5.28;;;28.80;1.00;;;;;;5155726;27;20105;-44
2022/06/19 01:31:48;;;;;;;7.03;4.90;;;28.90;1.00;;;;;;5156604;27;20571;-40
2022/06/19 01:34:38;;;;;;;6.95;4.90;;;29.00;1.00;;;;;;5154530;27;20030;-45
2022/06/19 01:37:22;;;;;;;5.85;5.10;;;29.00;1.00;;;;;;5155735;27;20038;-41
2022/06/19 01:39:52;;;;;;;7.97;4.50;;;28.90;1.00;;;;;;5148870;27;20031;-41
2022/06/19 01:42:18;;;;;;;6.68;4.80;;;28.70;1.00;;;;;;5156428;27;20030;-41
2022/06/19 01:44:45;;;;;;;5.40;4.53;;;28.70;1.00;;;;;;5143013;27;20038;-40
2022/06/19 01:47:12;;;;;;;5.80;4.80;;;28.90;1.00;;;;;;5153397;27;20030;-41
2022/06/19 01:49:41;;;;;;;4.90;4.38;;;28.80;1.00;;;;;;5156303;27;20192;-41
2022/06/19 01:52:07;;;;;;;6.93;4.35;;;28.80;1.00;;;;;;5157352;27;20041;-40
2022/06/19 01:54:43;;;;;;;4.50;4.10;;;28.70;1.00;;;;;;5156278;27;20026;-45
2022/06/19 01:57:11;;;;;;;6.45;4.30;;;28.70;1.00;;;;;;5156815;27;20487;-42
2022/06/19 01:59:40;;;;;;;5.47;4.57;;;28.90;1.00;;;;;;5154504;27;20034;-41
2022/06/19 02:02:07;;;;;;;6.32;4.50;;;28.50;1.00;;;;;;5152621;27;20019;-43
2022/06/19 02:04:34;;;;;;;5.95;4.50;;;28.80;1.00;;;;;;5155265;27;20023;-41
2022/06/19 02:07:03;;;;;;;4.85;4.22;;;28.70;1.00;;;;;;5156604;27;20538;-43
2022/06/19 02:09:30;;;;;;;7.88;4.53;;;28.80;1.00;;;;;;5155879;27;20038;-42
2022/06/19 02:11:57;;;;;;;7.68;4.10;;;28.70;1.00;;;;;;5155708;27;20045;-40
2022/06/19 02:14:23;;;;;;;5.45;4.30;;;28.60;1.00;;;;;;5149849;27;20098;-41
2022/06/19 02:16:50;;;;;;;6.53;4.47;;;28.60;1.00;;;;;;5150729;27;20015;-40
2022/06/19 02:19:18;;;;;;;4.35;3.90;;;28.50;1.00;;;;;;5149969;27;20039;-41
2022/06/19 02:21:51;;;;;;;5.88;4.80;;;28.50;1.00;;;;;;5148606;27;20042;-41
2022/06/19 02:24:23;;;;;;;8.40;4.70;;;28.60;1.00;;;;;;5148965;27;20035;-41
2022/06/19 02:26:50;;;;;;;9.45;4.40;;;28.40;1.00;;;;;;5147709;27;20019;-41
2022/06/19 02:29:18;;;;;;;4.72;4.30;;;28.40;1.00;;;;;;5154016;27;20015;-40
2022/06/19 02:31:49;;;;;;;7.68;5.43;;;28.50;1.00;;;;;;5155465;27;20023;-41
2022/06/19 02:34:40;;;;;;;5.35;4.43;;;28.50;1.00;;;;;;5154088;27;20054;-41
2022/06/19 02:37:21;;;;;;;6.40;4.95;;;28.40;1.00;;;;;;5148949;27;20058;-41
2022/06/19 02:40:00;;;;;;;6.10;4.60;;;28.50;1.00;;;;;;5149368;27;20041;-41
2022/06/19 02:42:34;;;;;;;5.30;4.68;;;28.30;1.00;;;;;;5144717;27;20076;-41
2022/06/19 02:45:04;;;;;;;4.85;4.38;;;28.50;1.00;;;;;;5150920;27;20022;-42
2022/06/19 02:47:33;;;;;;;5.10;4.55;;;28.40;1.00;;;;;;5154978;27;20014;-42
2022/06/19 02:49:59;;;;;;;5.88;4.25;;;28.30;1.00;;;;;;5155139;27;20042;-41
2022/06/19 02:52:25;;;;;;;5.32;4.70;;;28.50;1.00;;;;;;5155838;27;20045;-42
2022/06/19 02:54:50;;;;;;;8.07;5.03;;;28.30;1.00;;;;;;5152945;27;20099;-41
2022/06/19 02:57:17;;;;;;;9.35;4.85;;;28.30;1.00;;;;;;5156241;27;20022;-42
2022/06/19 02:59:43;;;;;;;7.45;4.32;;;28.40;1.00;;;;;;5149304;27;20035;-41
2022/06/19 03:02:11;;;;;;;6.95;5.03;;;28.30;1.00;;;;;;5155640;27;20114;-42
2022/06/19 03:05:12;;;;;;;5.20;4.55;;;28.40;1.00;;;;;;5144830;27;20076;-41
2022/06/19 03:07:37;;;;;;;6.93;4.55;;;28.40;1.00;;;;;;5143736;27;20523;-41
2022/06/19 03:10:03;;;;;;;7.80;4.60;;;28.40;1.00;;;;;;5142344;27;20039;-42
2022/06/19 03:12:29;;;;;;;7.53;5.28;;;28.50;1.00;;;;;;5146187;27;20026;-41
2022/06/19 03:14:55;;;;;;;6.55;5.20;;;28.30;1.00;;;;;;5147822;27;20027;-42
2022/06/19 03:17:22;;;;;;;6.85;4.93;;;28.40;1.00;;;;;;5155638;27;20019;-42
2022/06/19 03:19:48;;;;;;;6.97;5.18;;;28.20;1.00;;;;;;5145595;27;20046;-41
2022/06/19 03:22:14;;;;;;;5.03;4.53;;;28.40;1.00;;;;;;5150550;27;20015;-41
2022/06/19 03:24:40;;;;;;;5.25;4.75;;;28.40;1.00;;;;;;5138674;27;20121;-44
2022/06/19 03:27:06;;;;;;;7.93;4.38;;;28.30;1.00;;;;;;5154192;27;20049;-42
2022/06/19 03:29:32;;;;;;;5.10;4.68;;;28.40;1.00;;;;;;5140312;27;20027;-41
2022/06/19 03:31:58;;;;;;;6.05;5.28;;;28.40;1.00;;;;;;5149657;27;20037;-42
2022/06/19 03:34:24;;;;;;;6.65;5.13;;;28.30;1.00;;;;;;5144365;27;20019;-42
2022/06/19 03:36:51;;;;;;;9.25;5.00;;;28.50;1.00;;;;;;5154882;27;20052;-41
2022/06/19 03:39:17;;;;;;;5.10;4.60;;;28.30;1.00;;;;;;5147562;27;20041;-42
2022/06/19 03:41:43;;;;;;;5.32;4.85;;;28.30;1.00;;;;;;5153595;27;20113;-44
2022/06/19 03:44:09;;;;;;;6.80;4.45;;;28.40;1.00;;;;;;5148327;27;20027;-41
2022/06/19 03:46:35;;;;;;;8.35;5.32;;;28.30;1.00;;;;;;5154346;27;20026;-41
2022/06/19 03:49:01;;;;;;;6.47;5.03;;;28.20;1.00;;;;;;5153461;27;20109;-43
2022/06/19 03:51:27;;;;;;;5.78;5.28;;;28.30;1.00;;;;;;5154807;27;20035;-41
2022/06/19 03:53:54;;;;;;;6.93;5.30;;;28.40;1.00;;;;;;5153866;27;20048;-42
2022/06/19 03:56:25;;;;;;;6.93;5.55;;;28.40;1.00;;;;;;5142426;27;20028;-41
2022/06/19 03:58:51;;;;;;;5.88;5.00;;;28.40;1.00;;;;;;5153815;27;20026;-41
2022/06/19 04:01:20;;;;;;;6.07;5.50;;;28.30;1.00;;;;;;5153975;27;20049;-42
2022/06/19 04:03:47;;;;;;;6.82;5.63;;;28.10;1.00;;;;;;5154572;27;20359;-41
2022/06/19 04:06:15;;;;;;;9.93;5.32;;;28.20;1.00;;;;;;5141262;27;20417;-42
2022/06/19 04:08:44;;;;;;;5.57;4.88;;;28.30;1.00;;;;;;5154481;27;20094;-41
2022/06/19 04:11:10;;;;;;;6.28;5.30;;;28.30;1.00;;;;;;5151875;27;20023;-41
2022/06/19 04:13:36;;;;;;;6.85;5.57;;;28.00;1.00;;;;;;5137389;27;20464;-42
2022/06/19 04:16:04;;;;;;;6.30;5.70;;;28.20;1.00;;;;;;5151066;27;20038;-41
2022/06/19 04:18:30;;;;;;;6.05;5.55;;;28.10;1.00;;;;;;5152524;27;20050;-41
2022/06/19 04:20:57;;;;;;;6.70;5.22;;;28.00;1.00;;;;;;5153280;27;20390;-41
2022/06/19 04:23:24;;;;;;;8.98;5.50;;;28.10;1.00;;;;;;5152066;27;20021;-41
2022/06/19 04:25:49;;;;;;;6.78;6.18;;;28.00;1.00;;;;;;5147735;27;20026;-42
2022/06/19 04:28:17;;;;;;;5.45;5.05;;;28.30;1.00;;;;;;5152527;27;20021;-41
2022/06/19 04:30:46;;;;;;;7.13;5.32;;;28.30;1.00;;;;;;5150065;27;20050;-42
2022/06/19 04:33:14;;;;;;;5.72;5.22;;;28.20;1.00;;;;;;5153530;27;20026;-42
2022/06/19 04:35:40;;;;;;;8.68;5.70;;;28.30;1.00;;;;;;5152776;27;20106;-42
2022/06/19 04:38:05;;;;;;;6.13;5.47;;;28.40;1.00;;;;;;5153145;27;20061;-42
2022/06/19 04:40:33;;;;;;;6.35;5.85;;;28.30;1.00;;;;;;5152296;27;20417;-43
2022/06/19 04:42:59;;;;;;;5.88;5.35;;;28.30;1.00;;;;;;5152138;27;20050;-42
2022/06/19 04:45:25;;;;;;;6.32;5.72;;;28.20;1.00;;;;;;5142080;27;20460;-42
2022/06/19 04:47:50;;;;;;;7.07;5.80;;;28.30;1.00;;;;;;5146972;27;20019;-41
2022/06/19 04:50:16;;;;;;;5.90;4.80;;;28.20;1.00;;;;;;5146033;27;20433;-41
2022/06/19 04:52:41;;;;;;;5.90;5.43;;;28.30;1.00;;;;;;5149849;27;20034;-41
2022/06/19 04:55:09;;;;;;;6.07;5.53;;;28.30;1.00;;;;;;5152179;27;20015;-42
2022/06/19 04:57:35;;;;;;;7.15;6.07;;;28.30;1.00;;;;;;5153829;27;20446;-41
2022/06/19 05:00:01;;;;;;;6.15;5.70;;;28.20;1.00;;;;;;5152810;27;20058;-42
2022/06/19 05:02:26;;;;;;;6.22;5.63;;;28.10;1.00;;;;;;5153002;27;20026;-46
2022/06/19 05:04:52;;;;;;;6.43;5.72;;;28.20;1.00;;;;;;5152721;27;20464;-43
2022/06/19 05:07:17;;;;;;;6.20;5.60;;;28.20;1.00;;;;;;5152356;27;20074;-47
2022/06/19 05:09:43;;;;;;;6.72;5.70;;;28.30;1.00;;;;;;5152150;27;20047;-44
2022/06/19 05:12:09;;;;;;;6.63;6.05;;;28.20;1.00;;;;;;5149180;27;20507;-41
2022/06/19 05:14:37;;;;;;;8.07;5.80;;;28.40;1.00;;;;;;5153763;27;20027;-40
2022/06/19 05:17:03;;;;;;;7.18;6.10;;;28.20;1.00;;;;;;5149242;27;20023;-41
2022/06/19 05:19:28;;;;;;;8.25;6.72;;;28.30;1.00;;;;;;5153537;27;20043;-41
2022/06/19 05:21:54;;;;;;;6.95;6.28;;;28.50;1.00;;;;;;5145022;27;20015;-42
2022/06/19 05:24:20;;;;;;;9.90;6.25;;;28.40;1.00;;;;;;5153424;27;20033;-42
2022/06/19 05:26:46;;;;;;;6.57;5.97;;;28.40;1.00;;;;;;5150812;27;20019;-42
2022/06/19 05:29:12;;;;;;;9.13;6.72;;;28.40;1.00;;;;;;5153205;27;20044;-43
2022/06/19 05:31:37;;;;;;;8.07;6.07;;;28.50;1.00;;;;;;5149764;27;20425;-43
2022/06/19 05:34:03;;;;;;;6.72;6.03;;;28.60;1.00;;;;;;5153210;27;20027;-43
2022/06/19 05:36:29;;;;;;;6.70;5.97;;;28.40;1.00;;;;;;5146458;27;20027;-41
2022/06/19 05:38:56;;;;;;;6.55;5.95;;;28.50;1.00;;;;;;5152190;27;20030;-41
2022/06/19 05:41:23;;;;;;;9.55;6.03;;;28.70;1.00;;;;;;5136444;27;20428;-44
2022/06/19 05:43:49;;;;;;;6.53;5.90;;;28.60;1.00;;;;;;5139100;27;20039;-48
2022/06/19 05:46:18;;;;;;;8.18;6.68;;;28.70;1.00;;;;;;5133123;27;20063;-44
2022/06/19 05:48:44;;;;;;;7.20;5.82;;;28.60;1.00;;;;;;5149779;27;20027;-41
2022/06/19 05:51:16;;;;;;;6.03;5.53;;;28.50;1.00;;;;;;5145129;27;20093;-41
2022/06/19 05:53:46;;;;;;;6.90;6.30;;;28.50;1.00;;;;;;5145578;27;20023;-40
2022/06/19 05:56:12;;;;;;;7.75;5.60;;;28.50;1.00;;;;;;5148672;27;20114;-40
2022/06/19 05:58:38;;;;;;;7.70;5.53;;;28.70;1.00;;;;;;5143204;27;20114;-41
2022/06/19 06:01:04;;;;;;;6.57;5.80;;;28.70;1.00;;;;;;5139774;27;20079;-40
2022/06/19 06:03:30;;;;;;;6.50;5.97;;;28.60;1.00;;;;;;5146486;27;20019;-41
2022/06/19 06:06:04;;;;;;;6.65;6.15;;;28.60;1.00;;;;;;5151435;27;20374;-41
2022/06/19 06:08:30;;;;;;;5.93;5.43;;;28.50;1.00;;;;;;5155200;27;20023;-41
2022/06/19 06:10:56;;;;;;;8.98;6.03;;;28.60;1.00;;;;;;5155122;27;20039;-41
2022/06/19 06:13:22;;;;;;;6.05;5.43;;;28.70;1.00;;;;;;5155095;27;20026;-41
2022/06/19 06:15:48;;;;;;;6.97;5.50;;;28.70;1.00;;;;;;5156635;27;20070;-40
2022/06/19 06:18:15;;;;;;;6.50;5.32;;;28.70;1.00;;;;;;5155471;27;20035;-40
2022/06/19 06:20:41;;;;;;;8.82;6.00;;;28.70;1.00;;;;;;5152620;27;20061;-40
2022/06/19 06:23:08;;;;;;;6.28;5.78;;;28.70;1.00;;;;;;5143197;27;20019;-40
2022/06/19 06:25:34;;;;;;;9.30;6.28;;;28.60;1.00;;;;;;5156690;27;20467;-41
2022/06/19 06:28:00;;;;;;;6.68;5.93;;;28.70;1.00;;;;;;5155249;27;20037;-40
2022/06/19 06:30:26;;;;;;;7.22;6.03;;;28.90;1.00;;;;;;5156211;27;20463;-41
2022/06/19 06:32:51;;;;;;;7.65;5.55;;;28.70;1.00;;;;;;5148949;27;20019;-42
2022/06/19 06:35:17;;;;;;;5.82;5.32;;;28.90;1.00;;;;;;5150008;27;20032;-41
2022/06/19 06:37:43;;;;;;;5.90;5.40;;;28.70;1.00;;;;;;5154818;27;20019;-42
2022/06/19 06:40:10;;;;;;;5.40;4.90;;;28.80;1.00;;;;;;5138509;27;20047;-43
2022/06/19 06:42:36;;;;;;;5.65;5.05;;;28.90;1.00;;;;;;5144386;27;20018;-42
2022/06/19 06:45:02;;;;;;;5.07;4.70;;;28.90;1.00;;;;;;5156023;27;20048;-42
2022/06/19 06:47:27;;;;;;;4.82;4.35;;;29.00;1.00;;;;;;5139363;27;20045;-45
2022/06/19 06:49:53;;;;;;;4.60;4.20;;;29.00;1.00;;;;;;5136638;27;20066;-41
2022/06/19 06:52:19;;;;;;;4.47;4.07;;;28.80;1.00;;;;;;5152388;27;20024;-43
2022/06/19 06:54:44;;;;;;;5.03;4.50;;;29.10;1.00;;;;;;5155509;27;20022;-43
2022/06/19 06:57:10;;;;;;;4.25;3.95;;;28.90;1.00;;;;;;5155080;27;20066;-41
2022/06/19 06:59:36;;;;;;;4.78;3.83;;;28.90;1.00;;;;;;5155818;27;20038;-41
2022/06/19 07:02:04;;;;;;;4.85;4.20;;;29.10;1.00;;;;;;5154265;27;20019;-41
2022/06/19 07:04:30;;;;;;;5.43;4.10;;;29.10;1.00;;;;;;5154575;27;20038;-41
2022/06/19 07:06:55;;;;;;;4.90;4.07;;;28.90;1.00;;;;;;5145894;27;20026;-41
2022/06/19 07:09:21;;;;;;;5.57;3.92;;;29.20;1.00;;;;;;5155603;27;20055;-43
2022/06/19 07:11:47;;;;;;;5.13;3.85;;;29.10;1.00;;;;;;5151367;27;20024;-43
2022/06/19 07:14:14;;;;;;;4.00;3.60;;;29.10;1.00;;;;;;5144922;27;20341;-42
2022/06/19 07:16:42;;;;;;;5.50;4.13;;;29.20;1.00;;;;;;5153966;27;20040;-42
2022/06/19 07:19:09;;;;;;;5.32;4.93;;;29.20;1.00;;;;;;5154119;27;20031;-42
2022/06/19 07:21:35;;;;;;;4.20;3.90;;;29.30;1.00;;;;;;5153770;27;20464;-42
2022/06/19 07:24:00;;;;;;;4.45;4.00;;;29.20;1.00;;;;;;5154705;27;20054;-41
2022/06/19 07:26:27;;;;;;;4.72;4.32;;;29.30;1.00;;;;;;5154963;27;20027;-41
2022/06/19 07:28:54;;;;;;;4.75;4.10;;;29.30;1.00;;;;;;5154108;27;20023;-43
2022/06/19 07:31:19;;;;;;;8.93;4.80;;;29.40;1.00;;;;;;5152215;27;20035;-41
2022/06/19 07:33:45;;;;;;;5.30;4.65;;;29.30;1.00;;;;;;5135588;27;20027;-42
2022/06/19 07:36:15;;;;;;;6.38;4.95;;;29.50;1.00;;;;;;5146962;27;20027;-42
2022/06/19 07:38:41;;;;;;;6.28;4.90;;;29.30;1.00;;;;;;5152892;27;20045;-42
2022/06/19 07:41:07;;;;;;;5.47;4.97;;;29.50;1.00;;;;;;5140469;27;20035;-42
2022/06/19 07:43:33;;;;;;;5.15;4.53;;;29.50;1.00;;;;;;5147297;27;20380;-42
2022/06/19 07:45:58;;;;;;;4.90;4.40;;;29.60;1.00;;;;;;5153993;27;20034;-44
2022/06/19 07:51:08;;;;;;;11.93;4.75;;;29.60;1.00;;;;;;5146698;27;20038;-42
2022/06/19 07:53:34;;;;;;;6.53;5.03;;;29.50;1.00;;;;;;5148529;27;20022;-42
2022/06/19 07:56:00;;;;;;;7.93;4.85;;;29.50;1.00;;;;;;5150239;27;20113;-44
2022/06/19 07:58:25;;;;;;;5.75;5.25;;;29.40;1.00;;;;;;5145554;27;20019;-42
2022/06/19 08:00:51;;;;;;;4.90;4.45;;;29.60;1.00;;;;;;5139801;27;20042;-43
2022/06/19 08:03:16;;;;;;;5.65;4.75;;;29.70;1.00;;;;;;5143919;27;20019;-42
2022/06/19 08:05:45;;;;;;;5.53;4.63;;;29.90;1.00;;;;;;5154362;27;20030;-45
2022/06/19 08:08:25;;;;;;;5.30;4.55;;;30.30;1.00;;;;;;5147032;27;20026;-50
2022/06/19 08:10:53;;;;;;;4.95;4.40;;;30.20;1.00;;;;;;5149449;27;20061;-60
2022/06/19 08:13:21;;;;;;;6.85;4.28;;;30.10;1.00;;;;;;5145527;27;20050;-63
2022/06/19 08:15:53;;;;;;;4.78;4.38;;;30.40;1.00;;;;;;5157205;27;20022;-56
2022/06/19 08:18:19;;;;;;;5.78;4.90;;;30.30;1.00;;;;;;5142506;27;20027;-55
2022/06/19 08:20:45;;;;;;;5.82;4.13;;;30.10;1.00;;;;;;5144424;27;20531;-53
2022/06/19 08:23:13;;;;;;;5.10;4.60;;;30.30;1.00;;;;;;5137789;27;20145;-53
2022/06/19 08:25:39;;;;;;;4.85;4.43;;;30.30;1.00;;;;;;5142350;27;20035;-61
2022/06/19 08:28:05;;;;;;;4.60;4.15;;;30.50;1.00;;;;;;5149944;27;20058;-53
2022/06/19 08:30:34;;;;;;;4.85;4.13;;;30.70;1.00;;;;;;5144544;27;20026;-53
2022/06/19 08:33:00;;;;;;;4.57;4.15;;;30.80;1.00;;;;;;5150259;27;20018;-59
2022/06/19 08:35:28;;;;;;;5.00;4.50;;;31.20;1.00;;;;;;5147774;27;20023;-52
2022/06/19 08:38:02;;;;;;;4.03;3.72;;;31.10;1.00;;;;;;5141707;27;20023;-49
2022/06/19 08:40:50;;;;;;;4.47;3.83;;;31.60;1.00;;;;;;5145791;27;20035;-59
2022/06/19 08:43:25;;;;;;;4.57;4.15;;;31.40;1.00;;;;;;5148914;27;20034;-62
2022/06/19 08:46:03;;;;;;;4.28;3.88;;;31.50;1.00;;;;;;5147233;27;20030;-53
2022/06/19 08:48:47;;;;;;;4.75;3.83;;;31.70;1.00;;;;;;5151418;27;20029;-49
2022/06/19 08:51:39;;;;;;;7.93;3.85;;;31.60;1.00;;;;;;5148656;27;20034;-53
2022/06/19 08:54:32;;;;;;;4.43;3.97;;;31.90;1.00;;;;;;5145758;27;20525;-49
2022/06/19 08:57:21;;;;;;;5.13;4.53;;;31.70;1.00;;;;;;5137935;27;20164;-51
2022/06/19 09:00:09;;;;;;;6.25;4.60;;;31.30;1.00;;;;;;5145283;27;20035;-50
2022/06/19 09:02:42;;;;;;;6.47;3.75;;;31.20;1.00;;;;;;5142561;27;20030;-54
2022/06/19 09:05:45;;;;;;;4.00;3.70;;;31.40;1.00;;;;;;5153469;27;20503;-50
2022/06/19 09:08:28;;;;;;;3.78;3.47;;;31.50;1.00;;;;;;5137663;27;20023;-49
2022/06/19 09:11:10;;;;;;;5.72;3.60;;;31.80;1.00;;;;;;5152088;27;20073;-50
2022/06/19 09:14:12;;;;;;;6.70;4.00;;;32.00;1.00;;;;;;5144055;27;20031;-48
2022/06/19 09:16:39;;;;;;;5.40;3.25;;;32.00;1.00;;;;;;5144102;27;20042;-54
2022/06/19 09:19:29;;;;;;;5.13;3.17;;;31.90;1.00;;;;;;5153218;27;20364;-52
2022/06/19 09:22:12;;;;;;;6.28;4.28;;;31.90;1.00;;;;;;5151940;27;20031;-52
2022/06/19 09:25:09;;;;;;;4.22;3.80;;;32.00;1.00;;;;;;5139900;27;20018;-50
2022/06/19 09:27:49;;;;;;;3.97;3.60;;;32.10;1.00;;;;;;5137671;27;20419;-51
2022/06/19 09:30:27;;;;;;;4.10;3.55;;;32.20;1.00;;;;;;5153398;27;20095;-49
2022/06/19 09:33:00;;;;;;;6.13;3.67;;;32.40;1.00;;;;;;5133144;27;20029;-51
2022/06/19 09:35:32;;;;;;;;;;;32.70;1.00;;;;;;5145147;27;20106;-50
2022/06/19 09:38:04;;;;;;;3.85;3.50;;;32.80;1.00;;;;;;5149576;27;19987;-53
2022/06/19 09:40:40;;;;;;;4.32;3.30;;;32.70;1.00;;;;;;5143062;27;20064;-53
2022/06/19 09:43:14;;;;;;;6.30;4.03;;;32.90;1.00;;;;;;5151343;27;20046;-51
2022/06/19 09:45:49;;;;;;;4.18;3.78;;;32.90;1.00;;;;;;5151278;27;20030;-51
2022/06/19 09:48:31;;;;;;;6.75;3.53;;;33.10;1.00;;;;;;5152537;27;20025;-50
2022/06/19 09:51:01;;;;;;;3.92;3.45;;;33.20;1.00;;;;;;5148144;27;20031;-52
2022/06/19 09:53:45;;;;;;;6.47;3.75;;;33.00;1.00;;;;;;5155012;27;20071;-50
2022/06/19 09:56:31;;;;;;;4.00;3.67;;;32.80;1.00;;;;;;5143364;27;20023;-57
2022/06/19 09:59:09;;;;;;;3.30;3.10;;;32.70;1.00;;;;;;5143186;27;20038;-53
2022/06/19 10:01:36;;;;;;;4.63;3.40;;;33.00;1.00;;;;;;5138062;27;20433;-49
2022/06/19 10:04:29;;;;;;;4.70;3.22;;;32.80;1.00;;;;;;5156974;27;20097;-49
2022/06/19 10:06:58;;;;;;;4.57;3.35;;;33.20;1.00;;;;;;5144219;27;20031;-50
2022/06/19 10:09:45;;;;;;;4.07;3.45;;;33.30;1.00;;;;;;5153785;27;20050;-49
2022/06/19 10:12:18;;;;;;;5.75;3.38;;;33.40;1.00;;;;;;5141650;27;20098;-52
2022/06/19 10:14:47;;;;;;;3.03;2.83;;;33.40;1.00;;;;;;5153338;27;20023;-53
2022/06/19 10:17:21;;;;;;;4.55;3.30;;;33.40;1.00;;;;;;5155692;27;20424;-52
2022/06/19 10:20:16;;;;;;;5.53;2.95;;;33.30;1.00;;;;;;5154575;27;20506;-51
2022/06/19 10:22:48;;;;;;;6.28;2.58;;;33.40;1.00;;;;;;5138820;27;20372;-53
2022/06/19 10:25:42;;;;;;;2.80;2.50;;;33.60;1.00;;;;;;5153695;27;20454;-48
2022/06/19 10:28:26;;;;;;;4.60;2.55;;;33.40;1.00;;;;;;5150443;27;20419;-52
2022/06/19 10:30:54;;;;;;;1.98;1.88;;;33.50;1.00;;;;;;5142069;27;20038;-51
2022/06/19 10:33:38;;;;;;;3.40;2.00;;;33.60;1.00;;;;;;5142241;27;20034;-50
2022/06/19 10:36:22;;;;;;;4.88;2.30;;;33.50;1.00;;;;;;5149836;27;20027;-51
2022/06/19 10:38:51;;;;;;;3.25;2.45;;;33.70;1.00;;;;;;5154103;27;20030;-53
2022/06/19 10:42:06;;;;;;;2.75;2.10;;;34.00;1.00;;;;;;5149541;27;20089;-48
2022/06/19 10:44:52;;;;;;;4.55;2.25;;;33.70;1.00;;;;;;5145905;27;20030;-53
2022/06/19 10:47:33;;;;;;;2.97;2.20;;;33.80;1.00;;;;;;5141605;27;20030;-51
2022/06/19 10:50:07;;;;;;;3.35;2.45;;;33.50;1.00;;;;;;5156260;27;20159;-52
2022/06/19 10:52:39;;;;;;;3.13;2.55;;;33.50;1.00;;;;;;5148192;27;20031;-48
2022/06/19 10:55:21;;;;;;;5.30;2.55;;;33.70;1.00;;;;;;5155764;27;20418;-51
2022/06/19 10:58:00;;;;;;;5.80;2.67;;;34.10;1.00;;;;;;5153586;27;20086;-50
2022/06/19 11:00:26;;;;;;;2.88;2.30;;;34.00;1.00;;;;;;5152850;27;20384;-50
2022/06/19 11:06:17;;;;;;;3.95;2.50;;;33.80;1.00;;;;;;5153298;27;20033;-49
2022/06/19 11:08:48;;;;;;;6.03;3.08;;;33.90;1.00;;;;;;5153580;27;20026;-49
2022/06/19 11:11:17;;;;;;;3.47;2.45;;;33.90;1.00;;;;;;5152284;27;20087;-51
2022/06/19 11:14:07;;;;;;;3.60;2.65;;;33.80;1.00;;;;;;5149336;27;20057;-49
2022/06/19 11:16:50;;;;;;;4.60;2.85;;;33.90;1.00;;;;;;5154405;27;20023;-48
2022/06/19 11:19:41;;;;;;;3.58;2.65;;;33.90;1.00;;;;;;5140584;27;20489;-48
2022/06/19 11:22:35;;;;;;;2.85;2.65;;;34.60;1.00;;;;;;5142202;27;20052;-48
2022/06/19 11:25:38;;;;;;;4.30;2.95;;;35.90;1.00;;;;;;5143670;27;20464;-50
2022/06/19 11:28:13;;;;;;;5.05;3.20;;;35.80;1.00;;;;;;5131576;27;20045;-52
2022/06/19 11:30:39;;;;;;;3.15;2.47;;;36.20;1.00;;;;;;5148449;27;20045;-49
2022/06/19 11:33:09;;;;;;;5.43;2.72;;;35.40;1.00;;;;;;5140915;27;20031;-51
2022/06/19 11:35:48;;;;;;;3.42;2.65;;;35.60;1.00;;;;;;5147124;27;20137;-50
2022/06/19 11:38:17;;;;;;;2.90;2.70;;;35.60;1.00;;;;;;5149271;27;20106;-51
2022/06/19 11:40:49;;;;;;;4.38;2.92;;;35.70;1.00;;;;;;5147359;27;20087;-48
2022/06/19 11:43:41;;;;;;;2.70;2.50;;;35.70;1.00;;;;;;5148841;27;20022;-53
2022/06/19 11:46:16;;;;;;;5.22;3.53;;;35.70;1.00;;;;;;5143298;27;20031;-48
2022/06/19 11:48:42;;;;;;;3.72;2.90;;;35.70;1.00;;;;;;5147820;27;20079;-51
2022/06/19 11:51:29;;;;;;;4.43;3.40;;;35.50;1.00;;;;;;5144837;27;20023;-54
2022/06/19 11:53:58;;;;;;;4.47;3.10;;;35.60;1.00;;;;;;5152370;27;20041;-53
2022/06/19 11:56:36;;;;;;;3.30;3.08;;;35.50;1.00;;;;;;5151051;27;20079;-51
2022/06/19 11:59:05;;;;;;;5.05;2.90;;;35.60;1.00;;;;;;5143653;27;20090;-53
2022/06/19 12:01:43;;;;;;;3.60;3.13;;;35.70;1.00;;;;;;5153544;27;20035;-50
2022/06/19 12:04:39;;;;;;;4.20;2.80;;;35.70;1.00;;;;;;5149463;27;20026;-51
2022/06/19 12:07:15;;;;;;;2.78;2.58;;;35.30;1.00;;;;;;5153696;27;20448;-52
2022/06/19 12:09:40;;;;;;;4.40;3.22;;;35.00;1.00;;;;;;5150451;27;20062;-50
2022/06/19 12:12:08;;;;;;;3.40;2.95;;;34.90;1.00;;;;;;5142692;27;20018;-52
2022/06/19 12:14:38;;;;;;;4.45;3.10;;;35.10;1.00;;;;;;5143589;27;20057;-54
2022/06/19 12:17:20;;;;;;;4.57;3.17;;;35.10;1.00;;;;;;5153885;27;20027;-55
2022/06/19 12:19:57;;;;;;;6.13;3.17;;;35.10;1.00;;;;;;5141562;27;20034;-52
2022/06/19 12:22:48;;;;;;;4.80;2.80;;;34.90;1.00;;;;;;5150668;27;20382;-54
2022/06/19 12:25:31;;;;;;;3.70;2.53;;;34.90;1.00;;;;;;5153397;27;20030;-53
2022/06/19 12:28:25;;;;;;;3.40;3.10;;;35.00;1.00;;;;;;5153089;27;20027;-55
2022/06/19 12:31:01;;;;;;;4.78;2.90;;;35.00;1.00;;;;;;5144010;27;20037;-55
2022/06/19 12:33:31;;;;;;;3.92;2.97;;;35.00;1.00;;;;;;5145705;27;20022;-53
2022/06/19 12:35:58;;;;;;;4.97;3.30;;;35.10;1.00;;;;;;5153236;27;20033;-54
2022/06/19 12:38:24;;;;;;;3.92;3.42;;;35.60;1.00;;;;;;5153439;27;20026;-54
2022/06/19 12:41:18;;;;;;;3.55;3.25;;;35.50;1.00;;;;;;5152821;27;20087;-51
2022/06/19 12:44:08;;;;;;;4.10;3.42;;;35.50;1.00;;;;;;5151722;27;20090;-50
2022/06/19 12:47:08;;;;;;;4.65;3.63;;;35.40;1.00;;;;;;5153147;27;20031;-50
2022/06/19 12:49:45;;;;;;;5.13;3.47;;;35.50;1.00;;;;;;5141043;27;20529;-49
2022/06/19 12:52:35;;;;;;;3.53;3.25;;;35.40;1.00;;;;;;5151720;27;20030;-51
2022/06/19 12:55:13;;;;;;;3.60;3.05;;;35.60;1.00;;;;;;5149396;27;20038;-50
2022/06/19 12:58:10;;;;;;;4.07;3.22;;;35.50;1.00;;;;;;5151430;27;20041;-53
2022/06/19 13:00:45;;;;;;;5.10;3.53;;;35.60;1.00;;;;;;5132693;27;20043;-49
2022/06/19 13:03:38;;;;;;;6.70;3.33;;;35.70;1.00;;;;;;5152995;27;20057;-54
2022/06/19 13:06:31;;;;;;;5.70;3.25;;;36.00;1.00;;;;;;5148248;27;20026;-51
2022/06/19 13:09:30;;;;;;;6.50;3.90;;;36.10;1.00;;;;;;5149136;27;20023;-52
2022/06/19 13:12:08;;;;;;;4.57;3.53;;;36.00;1.00;;;;;;5133680;27;20050;-52
2022/06/19 13:14:36;;;;;;;3.55;3.35;;;36.10;1.00;;;;;;5137350;27;20122;-51
2022/06/19 13:17:15;;;;;;;7.68;3.72;;;36.30;1.00;;;;;;5141541;27;20019;-50
2022/06/19 13:20:23;;;;;;;4.03;3.55;;;36.30;1.00;;;;;;5145688;27;20932;-52
2022/06/19 13:23:02;;;;;;;7.90;4.43;;;36.00;1.00;;;;;;5145405;27;20055;-52
2022/06/19 13:25:47;;;;;;;5.65;4.18;;;36.20;1.00;;;;;;5146703;27;20026;-54
2022/06/19 13:28:24;;;;;;;6.43;4.28;;;36.20;1.00;;;;;;5144866;27;20103;-56
2022/06/19 13:31:03;;;;;;;4.97;4.47;;;36.30;1.00;;;;;;5146204;27;20101;-58